KPCW

Erie-Ottawa International Airport

Port Clinton, Ohio, USA
METAR KPCW 161835Z AUTO 30008KT 10SM -UP SCT018 BKN025 OVC041 01/M01 A3018 RMK AO2
Observed Flight Rules
Jan-16 @ 18:35 UTC (17 minutes ago) Marginal Visual Flight Rules
Wind Visibility Clouds Conditions
300° at 8 knots 10 miles
  • Scattered at 1,800' AGL
  • Broken at 2,500' AGL
  • Overcast at 4,100' AGL
  • Unknown precipitation
Temperatures Readings
Current 1°C / 34°F
Dewpoint -1°C / 30°F
Humidity 87%
Altimeter 30.18" Hg
Pressure 1022.02 hPa
Elevation 178
METAR KPCW 161835Z AUTO 30008KT 10SM -UP SCT018 BKN025 OVC041 01/M01 A3018 RMK AO2
Observed Flight Rules
Jan-16 @ 18:35 UTC
(17 minutes ago)
MVFR
Wind Visibility
300° at 8 knots 10 miles
Clouds
  • Scattered at 1,800' AGL
  • Broken at 2,500' AGL
  • Overcast at 4,100' AGL
Conditions
  • Unknown precipitation
Temperature Dewpoint
1°C / 34°F -1°C / 30°F
Humidity Altimeter Pressure
87% 30.18" Hg 1022.02 hPa